createdAt,value
2017-06-04T00:02:58.882Z,0
2017-06-04T00:13:13.160Z,0
2017-06-04T00:23:28.921Z,0
2017-06-04T00:33:44.146Z,0
2017-06-04T00:43:59.780Z,0
2017-06-04T00:54:14.658Z,0
2017-06-04T01:04:28.611Z,0
2017-06-04T01:14:43.759Z,0
2017-06-04T01:24:58.296Z,0
2017-06-04T01:35:13.062Z,0
2017-06-04T01:45:27.422Z,0
2017-06-04T01:55:42.127Z,0
2017-06-04T02:05:57.496Z,0
2017-06-04T02:16:12.931Z,0
2017-06-04T02:26:28.561Z,0
2017-06-04T02:36:43.555Z,0
2017-06-04T02:46:58.868Z,8
2017-06-04T02:57:13.667Z,24
2017-06-04T03:07:27.802Z,68
2017-06-04T03:17:43.444Z,140
2017-06-04T03:27:58.507Z,392
2017-06-04T03:38:14.011Z,556
2017-06-04T03:48:28.877Z,928
2017-06-04T03:58:44.110Z,1384
2017-06-04T04:08:59.324Z,1960
2017-06-04T04:19:14.531Z,2768
2017-06-04T04:29:30.158Z,3936
2017-06-04T04:39:44.054Z,4624
2017-06-04T04:49:57.860Z,5384
2017-06-04T05:00:12.581Z,5996
2017-06-04T05:10:28.061Z,7724
2017-06-04T05:20:43.541Z,9964
2017-06-04T05:30:58.852Z,12004
2017-06-04T05:41:14.229Z,14284
2017-06-04T05:51:29.216Z,14456
2017-06-04T06:01:43.107Z,13440
2017-06-04T06:11:57.404Z,15192
2017-06-04T06:22:11.711Z,17920
2017-06-04T06:32:26.725Z,21760
2017-06-04T06:42:40.706Z,24416
2017-06-04T06:52:56.164Z,24672
2017-06-04T07:03:10.932Z,27552
2017-06-04T07:13:25.852Z,39424
2017-06-04T07:23:40.564Z,37312
2017-06-04T07:33:54.778Z,44032
2017-06-04T07:44:10.461Z,51072
2017-06-04T07:54:25.677Z,51424
2017-06-04T08:04:40.503Z,56896
2017-06-04T08:14:55.549Z,67008
2017-06-04T08:25:10.109Z,41504
2017-06-04T08:35:25.672Z,45056
2017-06-04T08:45:40.592Z,80032
2017-06-04T08:55:55.937Z,96416
2017-06-04T09:06:09.869Z,101440
2017-06-04T09:16:24.357Z,93984
2017-06-04T09:26:40.252Z,21152
2017-06-04T09:36:55.064Z,47008
2017-06-04T09:47:09.758Z,104128
2017-06-04T09:57:24.715Z,92576
2017-06-04T10:07:39.973Z,46816
2017-06-04T10:17:53.916Z,37120
2017-06-04T10:28:09.831Z,102400
2017-06-04T10:38:25.413Z,109152
2017-06-04T10:48:39.757Z,103168
2017-06-04T10:58:53.768Z,117408
2017-06-04T11:09:08.054Z,45248
2017-06-04T11:19:23.180Z,35424
2017-06-04T11:29:38.912Z,50272
2017-06-04T11:39:53.883Z,35808
2017-06-04T11:50:07.826Z,15532
2017-06-04T12:00:23.512Z,16048
2017-06-04T12:10:39.262Z,49376
2017-06-04T12:20:54.222Z,62912
2017-06-04T12:31:08.663Z,39072
2017-06-04T12:41:24.235Z,31712
2017-06-04T12:51:39.909Z,23872
2017-06-04T13:01:54.159Z,34368
2017-06-04T13:12:09.353Z,13288
2017-06-04T13:22:24.759Z,5892
2017-06-04T13:32:39.894Z,7224
2017-06-04T13:42:54.674Z,32064
2017-06-04T13:53:09.160Z,45536
2017-06-04T14:03:23.184Z,33120
2017-06-04T14:13:37.994Z,32928
2017-06-04T14:23:53.230Z,25248
2017-06-04T14:34:07.942Z,37120
2017-06-04T14:44:22.454Z,44832
2017-06-04T14:54:38.244Z,20448
2017-06-04T15:04:52.466Z,28288
2017-06-04T15:15:07.973Z,20640
2017-06-04T15:25:22.536Z,7468
2017-06-04T15:35:38.301Z,6688
2017-06-04T15:45:54.074Z,6520
2017-06-04T15:56:07.965Z,6740
2017-06-04T16:06:23.750Z,6696
2017-06-04T16:16:38.614Z,3740
2017-06-04T16:26:52.825Z,10008
2017-06-04T16:37:08.598Z,14300
2017-06-04T16:47:23.707Z,20096
2017-06-04T16:57:37.904Z,27328
2017-06-04T17:07:53.399Z,23616
2017-06-04T17:18:07.601Z,14492
2017-06-04T17:28:21.944Z,26496
2017-06-04T17:38:35.932Z,16672
2017-06-04T17:48:51.529Z,14140
2017-06-04T17:59:05.464Z,10808
2017-06-04T18:09:19.903Z,7892
2017-06-04T18:19:34.014Z,7132
2017-06-04T18:29:48.079Z,5648
2017-06-04T18:40:03.266Z,4376
2017-06-04T18:50:17.186Z,2684
2017-06-04T19:00:31.982Z,2292
2017-06-04T19:10:47.353Z,1968
2017-06-04T19:21:01.688Z,1636
2017-06-04T19:31:16.912Z,932
2017-06-04T19:41:31.184Z,424
2017-06-04T19:51:45.546Z,172
2017-06-04T20:02:00.900Z,56
2017-06-04T20:12:15.706Z,16
2017-06-04T20:22:29.473Z,8
2017-06-04T20:32:44.651Z,4
2017-06-04T20:42:58.809Z,0
2017-06-04T20:53:14.513Z,0
2017-06-04T21:03:30.112Z,0
2017-06-04T21:13:43.889Z,0
2017-06-04T21:23:58.347Z,0
2017-06-04T21:34:12.733Z,0
2017-06-04T21:44:27.198Z,0
2017-06-04T21:54:42.938Z,0
2017-06-04T22:04:56.773Z,0
2017-06-04T22:15:10.734Z,0
2017-06-04T22:25:25.500Z,0
2017-06-04T22:35:41.163Z,0
2017-06-04T22:45:55.242Z,0
2017-06-04T22:56:10.527Z,0
2017-06-04T23:06:26.055Z,0
2017-06-04T23:16:41.048Z,0
2017-06-04T23:26:56.237Z,0
2017-06-04T23:37:11.935Z,0
2017-06-04T23:47:26.511Z,0
2017-06-04T23:57:40.847Z,0
